sensor_id;sensor_type;location;lat;lon;timestamp;P1;durP1;ratioP1;P2;durP2;ratioP2
55082;SDS011;40978;52.850;6.506;2022-08-19T00:01:52;10.00;;;8.77;;
55082;SDS011;40978;52.850;6.506;2022-08-19T00:04:21;9.63;;;8.60;;
55082;SDS011;40978;52.850;6.506;2022-08-19T00:06:50;9.85;;;8.00;;
55082;SDS011;40978;52.850;6.506;2022-08-19T00:09:17;9.80;;;8.38;;
55082;SDS011;40978;52.850;6.506;2022-08-19T00:11:44;9.95;;;9.05;;
55082;SDS011;40978;52.850;6.506;2022-08-19T00:14:11;11.05;;;8.70;;
55082;SDS011;40978;52.850;6.506;2022-08-19T00:16:38;11.05;;;9.80;;
55082;SDS011;40978;52.850;6.506;2022-08-19T00:19:06;10.55;;;9.45;;
55082;SDS011;40978;52.850;6.506;2022-08-19T00:21:32;12.27;;;10.23;;
55082;SDS011;40978;52.850;6.506;2022-08-19T00:24:03;11.57;;;9.65;;
55082;SDS011;40978;52.850;6.506;2022-08-19T00:26:29;11.05;;;9.77;;
55082;SDS011;40978;52.850;6.506;2022-08-19T00:28:55;12.55;;;9.10;;
55082;SDS011;40978;52.850;6.506;2022-08-19T00:31:21;13.15;;;9.95;;
55082;SDS011;40978;52.850;6.506;2022-08-19T00:33:47;11.32;;;9.15;;
55082;SDS011;40978;52.850;6.506;2022-08-19T00:36:16;11.75;;;9.48;;
55082;SDS011;40978;52.850;6.506;2022-08-19T00:38:42;9.95;;;8.98;;
55082;SDS011;40978;52.850;6.506;2022-08-19T00:41:09;12.27;;;10.45;;
55082;SDS011;40978;52.850;6.506;2022-08-19T00:43:38;10.90;;;9.85;;
55082;SDS011;40978;52.850;6.506;2022-08-19T00:46:04;9.80;;;8.80;;
55082;SDS011;40978;52.850;6.506;2022-08-19T00:48:30;11.82;;;9.98;;
55082;SDS011;40978;52.850;6.506;2022-08-19T00:50:57;11.10;;;9.88;;
55082;SDS011;40978;52.850;6.506;2022-08-19T00:53:24;11.73;;;10.52;;
55082;SDS011;40978;52.850;6.506;2022-08-19T00:55:53;11.20;;;10.05;;
55082;SDS011;40978;52.850;6.506;2022-08-19T00:58:22;11.55;;;10.48;;
55082;SDS011;40978;52.850;6.506;2022-08-19T01:00:52;10.45;;;9.43;;
55082;SDS011;40978;52.850;6.506;2022-08-19T01:03:18;12.13;;;10.48;;
55082;SDS011;40978;52.850;6.506;2022-08-19T01:05:45;13.07;;;10.60;;
55082;SDS011;40978;52.850;6.506;2022-08-19T01:08:14;12.05;;;10.55;;
55082;SDS011;40978;52.850;6.506;2022-08-19T01:10:43;11.93;;;10.65;;
55082;SDS011;40978;52.850;6.506;2022-08-19T01:13:11;13.98;;;11.07;;
55082;SDS011;40978;52.850;6.506;2022-08-19T01:15:41;15.02;;;11.25;;
55082;SDS011;40978;52.850;6.506;2022-08-19T01:18:11;11.82;;;10.32;;
55082;SDS011;40978;52.850;6.506;2022-08-19T01:20:39;12.70;;;10.38;;
55082;SDS011;40978;52.850;6.506;2022-08-19T01:23:05;12.35;;;11.05;;
55082;SDS011;40978;52.850;6.506;2022-08-19T01:25:32;12.73;;;10.68;;
55082;SDS011;40978;52.850;6.506;2022-08-19T01:28:29;12.00;;;10.50;;
55082;SDS011;40978;52.850;6.506;2022-08-19T01:30:55;13.20;;;11.07;;
55082;SDS011;40978;52.850;6.506;2022-08-19T01:33:21;12.25;;;10.50;;
55082;SDS011;40978;52.850;6.506;2022-08-19T01:35:47;12.00;;;10.85;;
55082;SDS011;40978;52.850;6.506;2022-08-19T01:38:35;12.05;;;10.70;;
55082;SDS011;40978;52.850;6.506;2022-08-19T01:41:03;12.70;;;11.32;;
55082;SDS011;40978;52.850;6.506;2022-08-19T01:43:29;13.18;;;11.15;;
55082;SDS011;40978;52.850;6.506;2022-08-19T01:45:55;14.23;;;11.57;;
55082;SDS011;40978;52.850;6.506;2022-08-19T01:48:20;13.48;;;10.80;;
55082;SDS011;40978;52.850;6.506;2022-08-19T01:50:46;14.02;;;11.63;;
55082;SDS011;40978;52.850;6.506;2022-08-19T01:53:12;12.40;;;11.10;;
55082;SDS011;40978;52.850;6.506;2022-08-19T01:55:40;13.65;;;11.43;;
55082;SDS011;40978;52.850;6.506;2022-08-19T01:58:12;12.02;;;10.45;;
55082;SDS011;40978;52.850;6.506;2022-08-19T02:00:42;12.55;;;11.25;;
55082;SDS011;40978;52.850;6.506;2022-08-19T02:03:08;11.80;;;10.63;;
55082;SDS011;40978;52.850;6.506;2022-08-19T02:05:35;12.38;;;11.15;;
55082;SDS011;40978;52.850;6.506;2022-08-19T02:08:00;11.82;;;10.40;;
55082;SDS011;40978;52.850;6.506;2022-08-19T02:10:26;13.15;;;11.80;;
55082;SDS011;40978;52.850;6.506;2022-08-19T02:12:51;12.93;;;11.63;;
55082;SDS011;40978;52.850;6.506;2022-08-19T02:15:18;15.55;;;13.00;;
55082;SDS011;40978;52.850;6.506;2022-08-19T02:17:45;12.98;;;11.80;;
55082;SDS011;40978;52.850;6.506;2022-08-19T02:20:11;12.60;;;11.30;;
55082;SDS011;40978;52.850;6.506;2022-08-19T02:22:38;12.32;;;10.85;;
55082;SDS011;40978;52.850;6.506;2022-08-19T02:25:06;12.00;;;10.52;;
55082;SDS011;40978;52.850;6.506;2022-08-19T02:27:33;11.65;;;10.25;;
55082;SDS011;40978;52.850;6.506;2022-08-19T02:29:59;14.68;;;12.07;;
55082;SDS011;40978;52.850;6.506;2022-08-19T02:32:25;13.73;;;10.95;;
55082;SDS011;40978;52.850;6.506;2022-08-19T02:34:52;11.77;;;10.45;;
55082;SDS011;40978;52.850;6.506;2022-08-19T02:37:18;12.32;;;11.13;;
55082;SDS011;40978;52.850;6.506;2022-08-19T02:40:02;15.27;;;13.02;;
55082;SDS011;40978;52.850;6.506;2022-08-19T02:42:28;14.75;;;13.25;;
55082;SDS011;40978;52.850;6.506;2022-08-19T02:44:55;18.60;;;12.25;;
55082;SDS011;40978;52.850;6.506;2022-08-19T02:47:20;15.35;;;13.68;;
55082;SDS011;40978;52.850;6.506;2022-08-19T02:49:46;17.75;;;13.90;;
55082;SDS011;40978;52.850;6.506;2022-08-19T02:52:14;15.63;;;12.90;;
55082;SDS011;40978;52.850;6.506;2022-08-19T02:54:40;13.25;;;11.82;;
55082;SDS011;40978;52.850;6.506;2022-08-19T02:57:07;14.70;;;11.50;;
55082;SDS011;40978;52.850;6.506;2022-08-19T02:59:32;12.80;;;11.45;;
55082;SDS011;40978;52.850;6.506;2022-08-19T03:01:58;12.32;;;11.07;;
55082;SDS011;40978;52.850;6.506;2022-08-19T03:04:24;11.82;;;10.63;;
55082;SDS011;40978;52.850;6.506;2022-08-19T03:06:50;11.25;;;10.07;;
55082;SDS011;40978;52.850;6.506;2022-08-19T03:09:17;12.73;;;9.85;;
55082;SDS011;40978;52.850;6.506;2022-08-19T03:11:44;11.05;;;9.95;;
55082;SDS011;40978;52.850;6.506;2022-08-19T03:14:11;11.38;;;10.35;;
55082;SDS011;40978;52.850;6.506;2022-08-19T03:16:42;10.90;;;9.75;;
55082;SDS011;40978;52.850;6.506;2022-08-19T03:19:10;10.25;;;9.25;;
55082;SDS011;40978;52.850;6.506;2022-08-19T03:21:35;14.35;;;12.88;;
55082;SDS011;40978;52.850;6.506;2022-08-19T03:24:02;12.43;;;11.25;;
55082;SDS011;40978;52.850;6.506;2022-08-19T03:26:30;14.15;;;11.75;;
55082;SDS011;40978;52.850;6.506;2022-08-19T03:28:56;12.93;;;11.63;;
55082;SDS011;40978;52.850;6.506;2022-08-19T03:31:26;12.65;;;11.45;;
55082;SDS011;40978;52.850;6.506;2022-08-19T03:33:52;13.77;;;12.38;;
55082;SDS011;40978;52.850;6.506;2022-08-19T03:36:19;15.05;;;13.48;;
55082;SDS011;40978;52.850;6.506;2022-08-19T03:38:51;12.80;;;11.32;;
55082;SDS011;40978;52.850;6.506;2022-08-19T03:41:24;14.32;;;11.68;;
55082;SDS011;40978;52.850;6.506;2022-08-19T03:43:52;14.35;;;12.35;;
55082;SDS011;40978;52.850;6.506;2022-08-19T03:46:20;15.15;;;12.23;;
55082;SDS011;40978;52.850;6.506;2022-08-19T03:48:48;15.32;;;12.77;;
55082;SDS011;40978;52.850;6.506;2022-08-19T03:51:20;13.20;;;11.65;;
55082;SDS011;40978;52.850;6.506;2022-08-19T03:53:48;13.02;;;11.68;;
55082;SDS011;40978;52.850;6.506;2022-08-19T03:56:14;13.95;;;12.50;;
55082;SDS011;40978;52.850;6.506;2022-08-19T03:58:40;16.38;;;13.57;;
55082;SDS011;40978;52.850;6.506;2022-08-19T04:01:07;13.18;;;11.80;;
55082;SDS011;40978;52.850;6.506;2022-08-19T04:03:34;13.20;;;11.15;;
55082;SDS011;40978;52.850;6.506;2022-08-19T04:08:37;15.50;;;13.00;;
55082;SDS011;40978;52.850;6.506;2022-08-19T04:11:06;14.57;;;13.07;;
55082;SDS011;40978;52.850;6.506;2022-08-19T04:13:33;15.07;;;13.25;;
55082;SDS011;40978;52.850;6.506;2022-08-19T04:15:59;14.15;;;12.65;;
55082;SDS011;40978;52.850;6.506;2022-08-19T04:18:25;14.93;;;13.23;;
55082;SDS011;40978;52.850;6.506;2022-08-19T04:20:51;15.82;;;14.15;;
55082;SDS011;40978;52.850;6.506;2022-08-19T04:23:17;17.90;;;15.15;;
55082;SDS011;40978;52.850;6.506;2022-08-19T04:25:44;17.05;;;15.18;;
55082;SDS011;40978;52.850;6.506;2022-08-19T04:28:10;20.23;;;16.10;;
55082;SDS011;40978;52.850;6.506;2022-08-19T04:30:41;20.15;;;15.48;;
55082;SDS011;40978;52.850;6.506;2022-08-19T04:33:10;22.63;;;16.92;;
55082;SDS011;40978;52.850;6.506;2022-08-19T04:35:40;17.50;;;13.82;;
55082;SDS011;40978;52.850;6.506;2022-08-19T04:38:08;14.60;;;11.82;;
55082;SDS011;40978;52.850;6.506;2022-08-19T04:40:39;19.05;;;12.48;;
55082;SDS011;40978;52.850;6.506;2022-08-19T04:43:27;16.73;;;12.52;;
55082;SDS011;40978;52.850;6.506;2022-08-19T04:45:54;14.88;;;10.93;;
55082;SDS011;40978;52.850;6.506;2022-08-19T04:48:20;15.18;;;11.80;;
55082;SDS011;40978;52.850;6.506;2022-08-19T04:50:50;17.67;;;13.00;;
55082;SDS011;40978;52.850;6.506;2022-08-19T04:53:25;14.60;;;11.23;;
55082;SDS011;40978;52.850;6.506;2022-08-19T04:55:55;12.07;;;10.65;;
55082;SDS011;40978;52.850;6.506;2022-08-19T04:58:22;14.40;;;11.00;;
55082;SDS011;40978;52.850;6.506;2022-08-19T05:00:48;12.45;;;10.80;;
55082;SDS011;40978;52.850;6.506;2022-08-19T05:03:14;12.73;;;10.43;;
55082;SDS011;40978;52.850;6.506;2022-08-19T05:05:42;14.15;;;11.43;;
55082;SDS011;40978;52.850;6.506;2022-08-19T05:08:10;12.73;;;10.80;;
55082;SDS011;40978;52.850;6.506;2022-08-19T05:10:39;14.95;;;11.65;;
55082;SDS011;40978;52.850;6.506;2022-08-19T05:13:05;14.13;;;11.27;;
55082;SDS011;40978;52.850;6.506;2022-08-19T05:15:31;11.57;;;10.23;;
55082;SDS011;40978;52.850;6.506;2022-08-19T05:17:57;12.43;;;10.93;;
55082;SDS011;40978;52.850;6.506;2022-08-19T05:20:41;18.10;;;13.50;;
55082;SDS011;40978;52.850;6.506;2022-08-19T05:23:25;16.95;;;13.27;;
55082;SDS011;40978;52.850;6.506;2022-08-19T05:25:51;12.25;;;10.50;;
55082;SDS011;40978;52.850;6.506;2022-08-19T05:28:17;12.75;;;11.40;;
55082;SDS011;40978;52.850;6.506;2022-08-19T05:30:44;13.15;;;11.48;;
55082;SDS011;40978;52.850;6.506;2022-08-19T05:33:10;16.33;;;13.45;;
55082;SDS011;40978;52.850;6.506;2022-08-19T05:35:37;15.13;;;13.13;;
55082;SDS011;40978;52.850;6.506;2022-08-19T05:38:04;16.75;;;13.50;;
55082;SDS011;40978;52.850;6.506;2022-08-19T05:40:34;20.70;;;15.95;;
55082;SDS011;40978;52.850;6.506;2022-08-19T05:43:04;20.00;;;16.55;;
55082;SDS011;40978;52.850;6.506;2022-08-19T05:45:32;21.25;;;17.98;;
55082;SDS011;40978;52.850;6.506;2022-08-19T05:48:02;20.02;;;17.80;;
55082;SDS011;40978;52.850;6.506;2022-08-19T05:50:28;21.08;;;18.15;;
55082;SDS011;40978;52.850;6.506;2022-08-19T05:52:54;21.38;;;19.10;;
55082;SDS011;40978;52.850;6.506;2022-08-19T05:55:20;20.42;;;18.23;;
55082;SDS011;40978;52.850;6.506;2022-08-19T05:57:47;21.00;;;18.55;;
55082;SDS011;40978;52.850;6.506;2022-08-19T06:00:13;21.67;;;19.50;;
55082;SDS011;40978;52.850;6.506;2022-08-19T06:02:40;22.48;;;19.33;;
55082;SDS011;40978;52.850;6.506;2022-08-19T06:05:06;22.77;;;19.83;;
55082;SDS011;40978;52.850;6.506;2022-08-19T06:07:38;20.48;;;18.25;;
55082;SDS011;40978;52.850;6.506;2022-08-19T06:10:05;20.17;;;18.17;;
55082;SDS011;40978;52.850;6.506;2022-08-19T06:12:32;22.35;;;19.95;;
55082;SDS011;40978;52.850;6.506;2022-08-19T06:15:04;21.77;;;18.92;;
55082;SDS011;40978;52.850;6.506;2022-08-19T06:17:32;21.02;;;18.58;;
55082;SDS011;40978;52.850;6.506;2022-08-19T06:19:59;19.60;;;17.75;;
55082;SDS011;40978;52.850;6.506;2022-08-19T06:22:26;21.00;;;18.88;;
55082;SDS011;40978;52.850;6.506;2022-08-19T06:24:52;19.98;;;18.05;;
55082;SDS011;40978;52.850;6.506;2022-08-19T06:27:19;20.70;;;18.15;;
55082;SDS011;40978;52.850;6.506;2022-08-19T06:29:45;20.33;;;18.33;;
55082;SDS011;40978;52.850;6.506;2022-08-19T06:32:12;20.35;;;18.08;;
55082;SDS011;40978;52.850;6.506;2022-08-19T06:34:39;21.27;;;18.23;;
55082;SDS011;40978;52.850;6.506;2022-08-19T06:37:06;20.92;;;18.75;;
55082;SDS011;40978;52.850;6.506;2022-08-19T06:39:34;21.08;;;18.85;;
55082;SDS011;40978;52.850;6.506;2022-08-19T06:42:03;20.73;;;18.23;;
55082;SDS011;40978;52.850;6.506;2022-08-19T06:44:33;19.80;;;17.80;;
55082;SDS011;40978;52.850;6.506;2022-08-19T06:47:02;20.48;;;18.27;;
55082;SDS011;40978;52.850;6.506;2022-08-19T06:49:29;20.02;;;17.98;;
55082;SDS011;40978;52.850;6.506;2022-08-19T06:51:58;19.02;;;16.77;;
55082;SDS011;40978;52.850;6.506;2022-08-19T06:54:25;18.98;;;17.10;;
55082;SDS011;40978;52.850;6.506;2022-08-19T06:56:52;17.90;;;16.20;;
55082;SDS011;40978;52.850;6.506;2022-08-19T06:59:19;19.58;;;17.58;;
55082;SDS011;40978;52.850;6.506;2022-08-19T07:01:48;18.60;;;16.70;;
55082;SDS011;40978;52.850;6.506;2022-08-19T07:04:23;16.75;;;15.00;;
55082;SDS011;40978;52.850;6.506;2022-08-19T07:06:56;17.02;;;15.10;;
55082;SDS011;40978;52.850;6.506;2022-08-19T07:09:38;17.02;;;15.10;;
55082;SDS011;40978;52.850;6.506;2022-08-19T07:12:06;15.15;;;13.60;;
55082;SDS011;40978;52.850;6.506;2022-08-19T07:14:34;15.70;;;13.63;;
55082;SDS011;40978;52.850;6.506;2022-08-19T07:17:03;12.77;;;11.55;;
55082;SDS011;40978;52.850;6.506;2022-08-19T07:19:34;15.23;;;13.82;;
55082;SDS011;40978;52.850;6.506;2022-08-19T07:22:02;14.07;;;12.52;;
55082;SDS011;40978;52.850;6.506;2022-08-19T07:24:30;13.05;;;11.88;;
55082;SDS011;40978;52.850;6.506;2022-08-19T07:26:57;13.95;;;12.65;;
55082;SDS011;40978;52.850;6.506;2022-08-19T07:29:26;14.60;;;13.13;;
55082;SDS011;40978;52.850;6.506;2022-08-19T07:31:53;14.00;;;12.75;;
55082;SDS011;40978;52.850;6.506;2022-08-19T07:34:24;12.15;;;11.05;;
55082;SDS011;40978;52.850;6.506;2022-08-19T07:36:51;13.63;;;12.50;;
55082;SDS011;40978;52.850;6.506;2022-08-19T07:39:22;13.98;;;12.57;;
55082;SDS011;40978;52.850;6.506;2022-08-19T07:41:56;12.02;;;10.95;;
55082;SDS011;40978;52.850;6.506;2022-08-19T07:44:22;11.75;;;10.70;;
55082;SDS011;40978;52.850;6.506;2022-08-19T07:46:54;12.93;;;11.48;;
55082;SDS011;40978;52.850;6.506;2022-08-19T07:49:21;11.13;;;10.05;;
55082;SDS011;40978;52.850;6.506;2022-08-19T07:51:49;10.55;;;9.52;;
55082;SDS011;40978;52.850;6.506;2022-08-19T07:54:20;9.50;;;8.70;;
55082;SDS011;40978;52.850;6.506;2022-08-19T07:56:47;8.70;;;7.90;;
55082;SDS011;40978;52.850;6.506;2022-08-19T07:59:16;9.48;;;8.40;;
55082;SDS011;40978;52.850;6.506;2022-08-19T08:01:42;10.07;;;9.18;;
55082;SDS011;40978;52.850;6.506;2022-08-19T08:04:08;21.35;;;19.27;;
55082;SDS011;40978;52.850;6.506;2022-08-19T08:06:53;7.88;;;7.00;;
55082;SDS011;40978;52.850;6.506;2022-08-19T08:09:38;7.38;;;5.93;;
55082;SDS011;40978;52.850;6.506;2022-08-19T08:12:11;8.05;;;7.00;;
55082;SDS011;40978;52.850;6.506;2022-08-19T08:14:43;8.00;;;7.20;;
55082;SDS011;40978;52.850;6.506;2022-08-19T08:17:22;8.38;;;7.57;;
55082;SDS011;40978;52.850;6.506;2022-08-19T08:19:49;8.23;;;6.68;;
55082;SDS011;40978;52.850;6.506;2022-08-19T08:22:16;8.85;;;6.85;;
55082;SDS011;40978;52.850;6.506;2022-08-19T08:25:19;9.50;;;8.60;;
55082;SDS011;40978;52.850;6.506;2022-08-19T08:27:47;9.45;;;8.55;;
55082;SDS011;40978;52.850;6.506;2022-08-19T08:30:24;11.18;;;10.05;;
55082;SDS011;40978;52.850;6.506;2022-08-19T08:32:51;10.57;;;9.57;;
55082;SDS011;40978;52.850;6.506;2022-08-19T08:35:18;11.30;;;10.10;;
55082;SDS011;40978;52.850;6.506;2022-08-19T08:37:46;11.13;;;10.13;;
55082;SDS011;40978;52.850;6.506;2022-08-19T08:40:19;10.68;;;9.57;;
55082;SDS011;40978;52.850;6.506;2022-08-19T08:43:13;11.73;;;10.63;;
55082;SDS011;40978;52.850;6.506;2022-08-19T08:45:55;11.15;;;10.23;;
55082;SDS011;40978;52.850;6.506;2022-08-19T08:51:17;11.20;;;10.20;;
55082;SDS011;40978;52.850;6.506;2022-08-19T08:54:13;11.57;;;10.52;;
55082;SDS011;40978;52.850;6.506;2022-08-19T08:56:44;13.07;;;11.88;;
55082;SDS011;40978;52.850;6.506;2022-08-19T08:59:19;11.77;;;10.68;;
55082;SDS011;40978;52.850;6.506;2022-08-19T09:01:49;10.85;;;9.75;;
55082;SDS011;40978;52.850;6.506;2022-08-19T09:04:15;8.98;;;8.07;;
55082;SDS011;40978;52.850;6.506;2022-08-19T09:09:31;8.87;;;7.93;;
55082;SDS011;40978;52.850;6.506;2022-08-19T09:17:27;7.68;;;6.90;;
55082;SDS011;40978;52.850;6.506;2022-08-19T09:20:06;7.80;;;7.10;;
55082;SDS011;40978;52.850;6.506;2022-08-19T09:22:39;7.20;;;6.50;;
55082;SDS011;40978;52.850;6.506;2022-08-19T09:25:09;8.45;;;7.65;;
55082;SDS011;40978;52.850;6.506;2022-08-19T09:27:37;6.97;;;6.38;;
55082;SDS011;40978;52.850;6.506;2022-08-19T09:30:05;8.35;;;7.60;;
55082;SDS011;40978;52.850;6.506;2022-08-19T09:32:32;6.72;;;6.03;;
55082;SDS011;40978;52.850;6.506;2022-08-19T09:34:58;6.10;;;5.47;;
55082;SDS011;40978;52.850;6.506;2022-08-19T09:37:26;7.03;;;6.32;;
55082;SDS011;40978;52.850;6.506;2022-08-19T09:39:52;7.55;;;6.95;;
55082;SDS011;40978;52.850;6.506;2022-08-19T09:42:18;6.80;;;6.25;;
55082;SDS011;40978;52.850;6.506;2022-08-19T09:44:45;7.32;;;6.72;;
55082;SDS011;40978;52.850;6.506;2022-08-19T09:47:11;8.73;;;7.93;;
55082;SDS011;40978;52.850;6.506;2022-08-19T09:49:39;7.45;;;6.80;;
55082;SDS011;40978;52.850;6.506;2022-08-19T09:52:05;6.65;;;6.05;;
55082;SDS011;40978;52.850;6.506;2022-08-19T09:54:33;6.85;;;6.18;;
55082;SDS011;40978;52.850;6.506;2022-08-19T09:56:59;7.68;;;7.05;;
55082;SDS011;40978;52.850;6.506;2022-08-19T09:59:26;8.68;;;7.88;;
55082;SDS011;40978;52.850;6.506;2022-08-19T10:01:52;7.13;;;6.43;;
55082;SDS011;40978;52.850;6.506;2022-08-19T10:04:18;7.40;;;5.40;;
55082;SDS011;40978;52.850;6.506;2022-08-19T10:06:46;5.43;;;4.93;;
55082;SDS011;40978;52.850;6.506;2022-08-19T10:09:14;6.20;;;5.65;;
55082;SDS011;40978;52.850;6.506;2022-08-19T10:11:42;6.60;;;4.90;;
55082;SDS011;40978;52.850;6.506;2022-08-19T10:14:11;4.78;;;4.38;;
55082;SDS011;40978;52.850;6.506;2022-08-19T10:16:37;6.47;;;5.88;;
55082;SDS011;40978;52.850;6.506;2022-08-19T10:19:04;9.13;;;6.70;;
55082;SDS011;40978;52.850;6.506;2022-08-19T10:21:30;7.82;;;7.03;;
55082;SDS011;40978;52.850;6.506;2022-08-19T10:23:58;7.55;;;6.95;;
55082;SDS011;40978;52.850;6.506;2022-08-19T10:26:29;6.40;;;5.90;;
55082;SDS011;40978;52.850;6.506;2022-08-19T10:28:57;6.78;;;6.18;;
55082;SDS011;40978;52.850;6.506;2022-08-19T10:31:27;8.15;;;7.45;;
55082;SDS011;40978;52.850;6.506;2022-08-19T10:33:55;8.95;;;8.23;;
55082;SDS011;40978;52.850;6.506;2022-08-19T10:36:26;7.95;;;7.20;;
55082;SDS011;40978;52.850;6.506;2022-08-19T10:38:58;6.15;;;4.57;;
55082;SDS011;40978;52.850;6.506;2022-08-19T10:41:27;5.45;;;4.95;;
55082;SDS011;40978;52.850;6.506;2022-08-19T10:43:58;5.53;;;5.03;;
55082;SDS011;40978;52.850;6.506;2022-08-19T10:46:26;5.88;;;4.82;;
55082;SDS011;40978;52.850;6.506;2022-08-19T10:48:53;6.18;;;5.57;;
55082;SDS011;40978;52.850;6.506;2022-08-19T10:51:20;5.28;;;4.32;;
55082;SDS011;40978;52.850;6.506;2022-08-19T10:54:04;6.47;;;5.43;;
55082;SDS011;40978;52.850;6.506;2022-08-19T10:56:30;13.80;;;12.50;;
55082;SDS011;40978;52.850;6.506;2022-08-19T10:59:15;19.90;;;18.17;;
55082;SDS011;40978;52.850;6.506;2022-08-19T11:01:43;7.57;;;6.97;;
55082;SDS011;40978;52.850;6.506;2022-08-19T11:04:11;6.38;;;5.70;;
55082;SDS011;40978;52.850;6.506;2022-08-19T11:06:41;6.10;;;5.50;;
55082;SDS011;40978;52.850;6.506;2022-08-19T11:09:08;9.00;;;8.10;;
55082;SDS011;40978;52.850;6.506;2022-08-19T11:11:36;18.90;;;17.42;;
55082;SDS011;40978;52.850;6.506;2022-08-19T11:14:06;7.40;;;6.10;;
55082;SDS011;40978;52.850;6.506;2022-08-19T11:16:38;10.60;;;7.15;;
55082;SDS011;40978;52.850;6.506;2022-08-19T11:19:06;7.13;;;6.30;;
55082;SDS011;40978;52.850;6.506;2022-08-19T11:21:37;8.43;;;7.55;;
55082;SDS011;40978;52.850;6.506;2022-08-19T11:24:06;9.20;;;8.25;;
55082;SDS011;40978;52.850;6.506;2022-08-19T11:26:38;10.87;;;9.30;;
55082;SDS011;40978;52.850;6.506;2022-08-19T11:29:05;10.55;;;9.45;;
55082;SDS011;40978;52.850;6.506;2022-08-19T11:31:36;8.98;;;8.18;;
55082;SDS011;40978;52.850;6.506;2022-08-19T11:34:04;10.70;;;8.07;;
55082;SDS011;40978;52.850;6.506;2022-08-19T11:36:32;9.00;;;7.88;;
55082;SDS011;40978;52.850;6.506;2022-08-19T11:38:59;8.23;;;6.57;;
55082;SDS011;40978;52.850;6.506;2022-08-19T11:41:26;7.07;;;6.55;;
55082;SDS011;40978;52.850;6.506;2022-08-19T11:43:52;6.88;;;6.32;;
55082;SDS011;40978;52.850;6.506;2022-08-19T11:46:20;6.60;;;5.70;;
55082;SDS011;40978;52.850;6.506;2022-08-19T11:48:47;4.82;;;4.32;;
55082;SDS011;40978;52.850;6.506;2022-08-19T11:51:16;4.10;;;3.70;;
55082;SDS011;40978;52.850;6.506;2022-08-19T11:53:46;5.18;;;4.07;;
55082;SDS011;40978;52.850;6.506;2022-08-19T11:56:11;4.68;;;4.03;;
55082;SDS011;40978;52.850;6.506;2022-08-19T11:58:38;5.20;;;4.65;;
55082;SDS011;40978;52.850;6.506;2022-08-19T12:01:07;17.55;;;16.08;;
55082;SDS011;40978;52.850;6.506;2022-08-19T12:03:34;8.43;;;7.38;;
55082;SDS011;40978;52.850;6.506;2022-08-19T12:06:04;4.00;;;3.60;;
55082;SDS011;40978;52.850;6.506;2022-08-19T12:08:31;3.22;;;2.92;;
55082;SDS011;40978;52.850;6.506;2022-08-19T12:10:57;4.45;;;2.75;;
55082;SDS011;40978;52.850;6.506;2022-08-19T12:13:25;3.95;;;3.55;;
55082;SDS011;40978;52.850;6.506;2022-08-19T12:15:53;4.88;;;3.15;;
55082;SDS011;40978;52.850;6.506;2022-08-19T12:18:19;3.85;;;3.33;;
55082;SDS011;40978;52.850;6.506;2022-08-19T12:20:45;29.33;;;26.60;;
55082;SDS011;40978;52.850;6.506;2022-08-19T12:23:11;2.17;;;1.70;;
55082;SDS011;40978;52.850;6.506;2022-08-19T12:25:37;3.33;;;1.98;;
55082;SDS011;40978;52.850;6.506;2022-08-19T12:28:17;2.92;;;2.42;;
55082;SDS011;40978;52.850;6.506;2022-08-19T12:30:49;2.38;;;2.17;;
55082;SDS011;40978;52.850;6.506;2022-08-19T12:33:16;3.20;;;2.30;;
55082;SDS011;40978;52.850;6.506;2022-08-19T12:35:44;4.72;;;2.33;;
55082;SDS011;40978;52.850;6.506;2022-08-19T12:38:11;4.32;;;2.05;;
55082;SDS011;40978;52.850;6.506;2022-08-19T12:40:38;3.30;;;2.97;;
55082;SDS011;40978;52.850;6.506;2022-08-19T12:43:05;3.70;;;2.58;;
55082;SDS011;40978;52.850;6.506;2022-08-19T12:45:31;3.75;;;2.35;;
55082;SDS011;40978;52.850;6.506;2022-08-19T12:47:57;2.80;;;2.60;;
55082;SDS011;40978;52.850;6.506;2022-08-19T12:50:23;3.47;;;2.70;;
55082;SDS011;40978;52.850;6.506;2022-08-19T12:52:49;4.18;;;3.50;;
55082;SDS011;40978;52.850;6.506;2022-08-19T12:55:15;3.30;;;2.97;;
55082;SDS011;40978;52.850;6.506;2022-08-19T12:57:43;3.60;;;2.53;;
55082;SDS011;40978;52.850;6.506;2022-08-19T13:00:11;4.05;;;2.40;;
55082;SDS011;40978;52.850;6.506;2022-08-19T13:02:42;4.65;;;3.08;;
55082;SDS011;40978;52.850;6.506;2022-08-19T13:05:10;5.38;;;3.72;;
55082;SDS011;40978;52.850;6.506;2022-08-19T13:07:41;4.05;;;2.65;;
55082;SDS011;40978;52.850;6.506;2022-08-19T13:10:09;3.78;;;2.28;;
55082;SDS011;40978;52.850;6.506;2022-08-19T13:12:37;3.88;;;2.08;;
55082;SDS011;40978;52.850;6.506;2022-08-19T13:15:03;3.63;;;2.80;;
55082;SDS011;40978;52.850;6.506;2022-08-19T13:17:29;5.90;;;4.93;;
55082;SDS011;40978;52.850;6.506;2022-08-19T13:19:55;5.88;;;5.28;;
55082;SDS011;40978;52.850;6.506;2022-08-19T13:22:21;10.02;;;7.65;;
55082;SDS011;40978;52.850;6.506;2022-08-19T13:24:46;9.40;;;7.35;;
55082;SDS011;40978;52.850;6.506;2022-08-19T13:27:13;6.55;;;6.00;;
55082;SDS011;40978;52.850;6.506;2022-08-19T13:29:40;5.35;;;4.80;;
55082;SDS011;40978;52.850;6.506;2022-08-19T13:32:24;7.97;;;7.18;;
55082;SDS011;40978;52.850;6.506;2022-08-19T13:35:28;7.07;;;6.35;;
55082;SDS011;40978;52.850;6.506;2022-08-19T13:37:54;8.73;;;7.93;;
55082;SDS011;40978;52.850;6.506;2022-08-19T13:40:21;12.02;;;9.15;;
55082;SDS011;40978;52.850;6.506;2022-08-19T13:42:50;10.73;;;9.23;;
55082;SDS011;40978;52.850;6.506;2022-08-19T13:45:18;11.90;;;10.70;;
55082;SDS011;40978;52.850;6.506;2022-08-19T13:47:47;10.77;;;9.68;;
55082;SDS011;40978;52.850;6.506;2022-08-19T13:50:16;10.70;;;9.70;;
55082;SDS011;40978;52.850;6.506;2022-08-19T13:52:44;10.90;;;8.98;;
55082;SDS011;40978;52.850;6.506;2022-08-19T13:55:11;10.90;;;9.80;;
55082;SDS011;40978;52.850;6.506;2022-08-19T13:57:37;11.35;;;8.77;;
55082;SDS011;40978;52.850;6.506;2022-08-19T14:00:11;12.15;;;11.02;;
55082;SDS011;40978;52.850;6.506;2022-08-19T14:02:40;13.13;;;11.00;;
55082;SDS011;40978;52.850;6.506;2022-08-19T14:05:07;13.55;;;12.13;;
55082;SDS011;40978;52.850;6.506;2022-08-19T14:07:34;15.70;;;14.00;;
55082;SDS011;40978;52.850;6.506;2022-08-19T14:10:01;15.65;;;14.05;;
55082;SDS011;40978;52.850;6.506;2022-08-19T14:12:28;15.82;;;14.27;;
55082;SDS011;40978;52.850;6.506;2022-08-19T14:14:54;17.08;;;15.25;;
55082;SDS011;40978;52.850;6.506;2022-08-19T14:17:20;17.15;;;14.73;;
55082;SDS011;40978;52.850;6.506;2022-08-19T14:19:46;15.27;;;13.73;;
55082;SDS011;40978;52.850;6.506;2022-08-19T14:22:12;15.57;;;13.93;;
55082;SDS011;40978;52.850;6.506;2022-08-19T14:24:38;16.77;;;13.95;;
55082;SDS011;40978;52.850;6.506;2022-08-19T14:27:06;14.88;;;13.27;;
55082;SDS011;40978;52.850;6.506;2022-08-19T14:29:34;12.40;;;10.85;;
55082;SDS011;40978;52.850;6.506;2022-08-19T14:32:00;18.25;;;13.73;;
55082;SDS011;40978;52.850;6.506;2022-08-19T14:34:26;16.02;;;13.50;;
55082;SDS011;40978;52.850;6.506;2022-08-19T14:37:01;15.30;;;13.73;;
55082;SDS011;40978;52.850;6.506;2022-08-19T14:39:26;15.68;;;14.15;;
55082;SDS011;40978;52.850;6.506;2022-08-19T14:41:52;16.00;;;14.48;;
55082;SDS011;40978;52.850;6.506;2022-08-19T14:44:18;18.60;;;14.23;;
55082;SDS011;40978;52.850;6.506;2022-08-19T14:46:44;20.27;;;15.60;;
55082;SDS011;40978;52.850;6.506;2022-08-19T14:49:10;20.50;;;15.95;;
55082;SDS011;40978;52.850;6.506;2022-08-19T14:51:35;16.85;;;15.15;;
55082;SDS011;40978;52.850;6.506;2022-08-19T14:56:50;13.32;;;11.85;;